Bryce, Utah
Current Conditions -  °F | °C
As of 6:53 AM on Thursday 23 Oct 2014 (Local Time) from KBCE Reporting Station
Clear Clear  
Wind Chill: 20°   Ceiling: Unl
Heat Index: 28°   Visibility: 10mi
Dew Point: 22°   Wind: 8mph
Humidity: 78%   Direction: 270°W
Pressure: 30.32"   Gusts: NA
Location:  37.67°N, 112.16°W
Report Text: KBCE 231253Z AUTO 27007KT 10SM CLR M02/M06 A3032 RMK AO2 SLP212 T10221056 TSNO
Loading
Personal Weather Stations






























Interactive Weather Map
Tropical Storm Tracking
New forecast layout! Learn more

10-Day Weather Forecast

Advertisements
Track Severe Weather on mobile